Ana Sayfa
METAR-TAF:

METAR-TAF

Havaalanları :

Pardubice, Çek Cumhuriyeti

Enlem: 50-00-48N, Boylam: 15-44-19E, yükseklik: 226 m

Güncel hava durumu gözlemi

Rapor saat 05:30 UTC de 33 dakika önce yapıldı.
Sakin rüzgar
Sıcaklık -5°C
Nem 86%
Basınç 1024 hPa
Görüş mesafesi 10 km veya daha fazla
1500 m altında bulut yok ve kümülonimbus yok

METAR: LKPD 010530Z 00000KT CAVOK M05/M07 Q1024 NOSIG RMK BLU BLU

Saat: 08:03 (06:03 UTC)

Tahmin

Rapor saat 23:00 UTC de 7 saat ve 3 dakika önce yapıldı.
Ayın 01'si saat 00 UTC'den ayın 02'si saat 00 UTC'ye kadar geçerli Tahmin
Rüzgar değişken yönden 2 kt
Görüş mesafesi 10 km veya daha fazla
1500 m altında bulut yok ve kümülonimbus yok
Dönüşüyor
ayın 01'si saat 10 UTC'den ayın 01'si saat 12 UTC'ye kadar
Rüzgar batıdan 8 kt
Dönüşüyor
ayın 01'si saat 16 UTC'den ayın 01'si saat 19 UTC'ye kadar
Rüzgar değişken yönden 2 kt

TAF: LKPD 312300Z 0100/0200 VRB02KT CAVOK BECMG 0110/0112 27008KT BECMG 0116/0119 VRB02KT

4.000'den fazla havaalanı için hava durumu gözlemleri ve tahminleri (METAR ve TAF raporları).

Kullanılabilir istasyonlar harita üzerinde sarı ve kırmızı noktalarla gösterilir.

İstasyonun adını görmek için fareyi noktanın üzerinde gezdirin.

Sonrasında hava gözlem ve tahminlerini görmek için tıklayın.

Haritayı değiştirmek için: yaklaştırmak için siyah artı işaretli yeşil düğmeye ve uzaklaştırmak için de eksi işaretli düğmeye hızla tıklayın; bitişik haritalar için yeşil okları kullanın.


METAR-TAF: